sensor_id;sensor_type;location;lat;lon;timestamp;temperature;humidity
74416;SHT31;62850;42.428;25.618;2022-11-27T00:00:42;7.01;67.62
74416;SHT31;62850;42.428;25.618;2022-11-27T00:03:07;6.85;68.07
74416;SHT31;62850;42.428;25.618;2022-11-27T00:05:33;6.85;68.42
74416;SHT31;62850;42.428;25.618;2022-11-27T00:07:59;6.98;67.97
74416;SHT31;62850;42.428;25.618;2022-11-27T00:10:24;6.94;68.25
74416;SHT31;62850;42.428;25.618;2022-11-27T00:12:50;7.04;66.76
74416;SHT31;62850;42.428;25.618;2022-11-27T00:15:15;7.12;66.88
74416;SHT31;62850;42.428;25.618;2022-11-27T00:17:41;7.15;67.90
74416;SHT31;62850;42.428;25.618;2022-11-27T00:20:07;7.19;67.23
74416;SHT31;62850;42.428;25.618;2022-11-27T00:22:32;7.25;67.16
74416;SHT31;62850;42.428;25.618;2022-11-27T00:24:58;7.29;66.88
74416;SHT31;62850;42.428;25.618;2022-11-27T00:27:23;7.25;67.18
74416;SHT31;62850;42.428;25.618;2022-11-27T00:29:49;7.25;66.75
74416;SHT31;62850;42.428;25.618;2022-11-27T00:32:14;7.26;67.44
74416;SHT31;62850;42.428;25.618;2022-11-27T00:34:40;7.33;66.33
74416;SHT31;62850;42.428;25.618;2022-11-27T00:37:05;7.42;65.72
74416;SHT31;62850;42.428;25.618;2022-11-27T00:39:31;7.41;65.80
74416;SHT31;62850;42.428;25.618;2022-11-27T00:41:57;7.43;65.95
74416;SHT31;62850;42.428;25.618;2022-11-27T00:44:22;7.43;65.60
74416;SHT31;62850;42.428;25.618;2022-11-27T00:46:48;7.42;65.04
74416;SHT31;62850;42.428;25.618;2022-11-27T00:49:14;7.35;64.70
74416;SHT31;62850;42.428;25.618;2022-11-27T00:51:40;7.28;65.84
74416;SHT31;62850;42.428;25.618;2022-11-27T00:54:06;7.35;64.98
74416;SHT31;62850;42.428;25.618;2022-11-27T00:56:34;7.42;64.54
74416;SHT31;62850;42.428;25.618;2022-11-27T00:59:01;7.43;64.64
74416;SHT31;62850;42.428;25.618;2022-11-27T01:01:36;7.48;64.75
74416;SHT31;62850;42.428;25.618;2022-11-27T01:04:03;7.41;66.36
74416;SHT31;62850;42.428;25.618;2022-11-27T01:06:29;7.31;65.90
74416;SHT31;62850;42.428;25.618;2022-11-27T01:08:56;7.36;65.81
74416;SHT31;62850;42.428;25.618;2022-11-27T01:11:30;7.36;64.65
74416;SHT31;62850;42.428;25.618;2022-11-27T01:13:59;7.38;64.72
74416;SHT31;62850;42.428;25.618;2022-11-27T01:16:26;7.29;65.11
74416;SHT31;62850;42.428;25.618;2022-11-27T01:18:55;7.26;64.70
74416;SHT31;62850;42.428;25.618;2022-11-27T01:21:22;7.29;64.56
74416;SHT31;62850;42.428;25.618;2022-11-27T01:23:49;7.29;64.88
74416;SHT31;62850;42.428;25.618;2022-11-27T01:26:15;7.33;64.88
74416;SHT31;62850;42.428;25.618;2022-11-27T01:28:42;7.36;64.87
74416;SHT31;62850;42.428;25.618;2022-11-27T01:31:11;7.38;64.87
74416;SHT31;62850;42.428;25.618;2022-11-27T01:33:37;7.38;65.15
74416;SHT31;62850;42.428;25.618;2022-11-27T01:36:04;7.36;65.19
74416;SHT31;62850;42.428;25.618;2022-11-27T01:38:30;7.38;65.08
74416;SHT31;62850;42.428;25.618;2022-11-27T01:43:40;7.48;64.44
74416;SHT31;62850;42.428;25.618;2022-11-27T01:48:38;7.39;64.27
74416;SHT31;62850;42.428;25.618;2022-11-27T01:51:03;7.35;64.29
74416;SHT31;62850;42.428;25.618;2022-11-27T01:53:29;7.36;64.42
74416;SHT31;62850;42.428;25.618;2022-11-27T01:55:57;7.42;64.46
74416;SHT31;62850;42.428;25.618;2022-11-27T01:58:27;7.46;64.42
74416;SHT31;62850;42.428;25.618;2022-11-27T02:00:53;7.39;64.49
74416;SHT31;62850;42.428;25.618;2022-11-27T02:03:19;7.41;65.12
74416;SHT31;62850;42.428;25.618;2022-11-27T02:05:44;7.41;64.30
74416;SHT31;62850;42.428;25.618;2022-11-27T02:08:13;7.41;64.41
74416;SHT31;62850;42.428;25.618;2022-11-27T02:13:15;7.38;65.43
74416;SHT31;62850;42.428;25.618;2022-11-27T02:19:01;7.38;64.46
74416;SHT31;62850;42.428;25.618;2022-11-27T02:21:41;7.46;64.60
74416;SHT31;62850;42.428;25.618;2022-11-27T02:24:32;7.42;64.79
74416;SHT31;62850;42.428;25.618;2022-11-27T02:29:38;7.38;64.36
74416;SHT31;62850;42.428;25.618;2022-11-27T02:32:19;7.33;64.90
74416;SHT31;62850;42.428;25.618;2022-11-27T02:34:51;7.28;64.44
74416;SHT31;62850;42.428;25.618;2022-11-27T02:37:31;7.33;64.34
74416;SHT31;62850;42.428;25.618;2022-11-27T02:40:03;7.35;64.15
74416;SHT31;62850;42.428;25.618;2022-11-27T02:42:37;7.31;64.28
74416;SHT31;62850;42.428;25.618;2022-11-27T02:45:12;7.38;63.97
74416;SHT31;62850;42.428;25.618;2022-11-27T02:47:40;7.29;64.39
74416;SHT31;62850;42.428;25.618;2022-11-27T02:50:12;7.19;64.82
74416;SHT31;62850;42.428;25.618;2022-11-27T02:52:40;7.15;64.75
74416;SHT31;62850;42.428;25.618;2022-11-27T02:55:10;7.01;65.45
74416;SHT31;62850;42.428;25.618;2022-11-27T02:57:38;7.07;64.83
74416;SHT31;62850;42.428;25.618;2022-11-27T03:00:05;7.00;65.51
74416;SHT31;62850;42.428;25.618;2022-11-27T03:02:35;6.97;65.89
74416;SHT31;62850;42.428;25.618;2022-11-27T03:05:04;7.00;66.07
74416;SHT31;62850;42.428;25.618;2022-11-27T03:08:06;7.04;65.71
74416;SHT31;62850;42.428;25.618;2022-11-27T03:10:39;7.05;65.53
74416;SHT31;62850;42.428;25.618;2022-11-27T03:13:08;7.05;65.82
74416;SHT31;62850;42.428;25.618;2022-11-27T03:15:40;6.94;65.89
74416;SHT31;62850;42.428;25.618;2022-11-27T03:18:19;6.84;66.22
74416;SHT31;62850;42.428;25.618;2022-11-27T03:20:49;6.91;66.38
74416;SHT31;62850;42.428;25.618;2022-11-27T03:23:16;6.91;66.42
74416;SHT31;62850;42.428;25.618;2022-11-27T03:25:41;6.95;66.61
74416;SHT31;62850;42.428;25.618;2022-11-27T03:28:08;6.87;67.09
74416;SHT31;62850;42.428;25.618;2022-11-27T03:30:35;6.85;67.29
74416;SHT31;62850;42.428;25.618;2022-11-27T03:33:01;6.83;66.87
74416;SHT31;62850;42.428;25.618;2022-11-27T03:35:26;6.70;66.99
74416;SHT31;62850;42.428;25.618;2022-11-27T03:37:53;6.73;66.62
74416;SHT31;62850;42.428;25.618;2022-11-27T03:40:24;6.77;66.58
74416;SHT31;62850;42.428;25.618;2022-11-27T03:42:58;6.64;66.82
74416;SHT31;62850;42.428;25.618;2022-11-27T03:45:34;6.54;66.92
74416;SHT31;62850;42.428;25.618;2022-11-27T03:48:27;6.58;67.67
74416;SHT31;62850;42.428;25.618;2022-11-27T03:51:40;6.56;67.14
74416;SHT31;62850;42.428;25.618;2022-11-27T03:54:23;6.66;66.94
74416;SHT31;62850;42.428;25.618;2022-11-27T03:56:57;6.66;67.14
74416;SHT31;62850;42.428;25.618;2022-11-27T03:59:29;6.57;67.52
74416;SHT31;62850;42.428;25.618;2022-11-27T04:01:56;6.49;67.57
74416;SHT31;62850;42.428;25.618;2022-11-27T04:04:22;6.42;68.03
74416;SHT31;62850;42.428;25.618;2022-11-27T04:06:47;6.46;67.79
74416;SHT31;62850;42.428;25.618;2022-11-27T04:09:13;6.39;67.93
74416;SHT31;62850;42.428;25.618;2022-11-27T04:11:38;6.39;67.74
74416;SHT31;62850;42.428;25.618;2022-11-27T04:14:04;6.37;67.75
74416;SHT31;62850;42.428;25.618;2022-11-27T04:16:30;6.36;68.47
74416;SHT31;62850;42.428;25.618;2022-11-27T04:18:55;6.33;67.83
74416;SHT31;62850;42.428;25.618;2022-11-27T04:21:21;6.32;67.26
74416;SHT31;62850;42.428;25.618;2022-11-27T04:23:47;6.29;67.22
74416;SHT31;62850;42.428;25.618;2022-11-27T04:26:12;6.30;67.70
74416;SHT31;62850;42.428;25.618;2022-11-27T04:28:38;6.19;67.63
74416;SHT31;62850;42.428;25.618;2022-11-27T04:31:03;6.16;67.36
74416;SHT31;62850;42.428;25.618;2022-11-27T04:33:29;6.06;67.44
74416;SHT31;62850;42.428;25.618;2022-11-27T04:35:54;6.13;66.91
74416;SHT31;62850;42.428;25.618;2022-11-27T04:38:21;6.13;67.12
74416;SHT31;62850;42.428;25.618;2022-11-27T04:40:46;6.06;67.00
74416;SHT31;62850;42.428;25.618;2022-11-27T04:43:12;5.95;67.38
74416;SHT31;62850;42.428;25.618;2022-11-27T04:45:38;5.81;68.02
74416;SHT31;62850;42.428;25.618;2022-11-27T04:48:04;5.87;66.98
74416;SHT31;62850;42.428;25.618;2022-11-27T04:50:30;5.77;66.89
74416;SHT31;62850;42.428;25.618;2022-11-27T04:52:55;5.67;67.43
74416;SHT31;62850;42.428;25.618;2022-11-27T04:55:22;5.67;66.44
74416;SHT31;62850;42.428;25.618;2022-11-27T04:57:47;5.71;66.31
74416;SHT31;62850;42.428;25.618;2022-11-27T05:00:13;5.65;67.32
74416;SHT31;62850;42.428;25.618;2022-11-27T05:02:39;5.62;66.61
74416;SHT31;62850;42.428;25.618;2022-11-27T05:05:05;5.64;66.50
74416;SHT31;62850;42.428;25.618;2022-11-27T05:07:30;5.60;66.91
74416;SHT31;62850;42.428;25.618;2022-11-27T05:09:56;5.65;66.48
74416;SHT31;62850;42.428;25.618;2022-11-27T05:12:21;5.70;66.23
74416;SHT31;62850;42.428;25.618;2022-11-27T05:14:47;5.78;65.37
74416;SHT31;62850;42.428;25.618;2022-11-27T05:17:12;5.79;65.03
74416;SHT31;62850;42.428;25.618;2022-11-27T05:19:38;5.84;64.99
74416;SHT31;62850;42.428;25.618;2022-11-27T05:22:03;5.82;65.33
74416;SHT31;62850;42.428;25.618;2022-11-27T05:24:29;5.87;65.06
74416;SHT31;62850;42.428;25.618;2022-11-27T05:26:55;5.94;64.76
74416;SHT31;62850;42.428;25.618;2022-11-27T05:29:22;6.01;65.21
74416;SHT31;62850;42.428;25.618;2022-11-27T05:31:50;6.06;63.56
74416;SHT31;62850;42.428;25.618;2022-11-27T05:34:16;6.08;63.43
74416;SHT31;62850;42.428;25.618;2022-11-27T05:36:42;6.09;63.46
74416;SHT31;62850;42.428;25.618;2022-11-27T05:39:08;6.11;63.38
74416;SHT31;62850;42.428;25.618;2022-11-27T05:41:35;6.16;62.09
74416;SHT31;62850;42.428;25.618;2022-11-27T05:44:02;6.03;60.36
74416;SHT31;62850;42.428;25.618;2022-11-27T05:46:27;6.05;60.24
74416;SHT31;62850;42.428;25.618;2022-11-27T05:48:53;5.99;59.46
74416;SHT31;62850;42.428;25.618;2022-11-27T05:51:18;6.08;59.70
74416;SHT31;62850;42.428;25.618;2022-11-27T05:53:44;6.16;60.74
74416;SHT31;62850;42.428;25.618;2022-11-27T05:56:12;6.16;60.57
74416;SHT31;62850;42.428;25.618;2022-11-27T05:58:39;6.26;59.68
74416;SHT31;62850;42.428;25.618;2022-11-27T06:01:06;6.23;59.99
74416;SHT31;62850;42.428;25.618;2022-11-27T06:03:32;6.33;59.75
74416;SHT31;62850;42.428;25.618;2022-11-27T06:05:58;6.36;58.80
74416;SHT31;62850;42.428;25.618;2022-11-27T06:08:29;6.44;60.18
74416;SHT31;62850;42.428;25.618;2022-11-27T06:10:54;6.57;59.92
74416;SHT31;62850;42.428;25.618;2022-11-27T06:13:20;6.63;58.90
74416;SHT31;62850;42.428;25.618;2022-11-27T06:15:45;6.63;58.10
74416;SHT31;62850;42.428;25.618;2022-11-27T06:18:11;6.69;58.32
74416;SHT31;62850;42.428;25.618;2022-11-27T06:20:37;6.79;58.00
74416;SHT31;62850;42.428;25.618;2022-11-27T06:23:02;6.88;57.39
74416;SHT31;62850;42.428;25.618;2022-11-27T06:25:28;6.88;58.48
74416;SHT31;62850;42.428;25.618;2022-11-27T06:27:53;7.01;57.89
74416;SHT31;62850;42.428;25.618;2022-11-27T06:30:19;7.04;56.83
74416;SHT31;62850;42.428;25.618;2022-11-27T06:32:44;7.12;57.13
74416;SHT31;62850;42.428;25.618;2022-11-27T06:35:10;7.18;56.65
74416;SHT31;62850;42.428;25.618;2022-11-27T06:37:35;7.23;56.37
74416;SHT31;62850;42.428;25.618;2022-11-27T06:40:01;7.25;56.39
74416;SHT31;62850;42.428;25.618;2022-11-27T06:42:30;7.39;55.94
74416;SHT31;62850;42.428;25.618;2022-11-27T06:44:56;7.48;55.46
74416;SHT31;62850;42.428;25.618;2022-11-27T06:47:22;7.42;55.78
74416;SHT31;62850;42.428;25.618;2022-11-27T06:49:47;7.49;55.28
74416;SHT31;62850;42.428;25.618;2022-11-27T06:52:12;7.60;54.82
74416;SHT31;62850;42.428;25.618;2022-11-27T06:54:38;7.67;55.21
74416;SHT31;62850;42.428;25.618;2022-11-27T06:57:03;7.81;55.71
74416;SHT31;62850;42.428;25.618;2022-11-27T06:59:29;7.90;57.00
74416;SHT31;62850;42.428;25.618;2022-11-27T07:01:54;7.89;57.61
74416;SHT31;62850;42.428;25.618;2022-11-27T07:04:20;7.94;58.03
74416;SHT31;62850;42.428;25.618;2022-11-27T07:06:45;8.01;58.12
74416;SHT31;62850;42.428;25.618;2022-11-27T07:09:11;8.10;58.92
74416;SHT31;62850;42.428;25.618;2022-11-27T07:11:37;7.98;58.81
74416;SHT31;62850;42.428;25.618;2022-11-27T07:14:04;8.04;58.76
74416;SHT31;62850;42.428;25.618;2022-11-27T07:16:32;8.12;58.55
74416;SHT31;62850;42.428;25.618;2022-11-27T07:19:04;8.28;58.70
74416;SHT31;62850;42.428;25.618;2022-11-27T07:21:30;8.38;57.96
74416;SHT31;62850;42.428;25.618;2022-11-27T07:23:56;8.42;57.98
74416;SHT31;62850;42.428;25.618;2022-11-27T07:26:27;8.52;58.70
74416;SHT31;62850;42.428;25.618;2022-11-27T07:28:53;8.58;57.64
74416;SHT31;62850;42.428;25.618;2022-11-27T07:31:24;8.62;57.45
74416;SHT31;62850;42.428;25.618;2022-11-27T07:33:53;8.60;56.82
74416;SHT31;62850;42.428;25.618;2022-11-27T07:36:21;8.65;56.71
74416;SHT31;62850;42.428;25.618;2022-11-27T07:38:47;8.70;56.37
74416;SHT31;62850;42.428;25.618;2022-11-27T07:41:13;8.70;56.15
74416;SHT31;62850;42.428;25.618;2022-11-27T07:43:40;8.79;56.25
74416;SHT31;62850;42.428;25.618;2022-11-27T07:46:10;8.87;56.67
74416;SHT31;62850;42.428;25.618;2022-11-27T07:48:36;8.99;56.12
74416;SHT31;62850;42.428;25.618;2022-11-27T07:51:10;9.06;54.64
74416;SHT31;62850;42.428;25.618;2022-11-27T07:53:37;9.13;54.58
74416;SHT31;62850;42.428;25.618;2022-11-27T07:56:04;9.20;54.60
74416;SHT31;62850;42.428;25.618;2022-11-27T07:58:29;9.24;54.36
74416;SHT31;62850;42.428;25.618;2022-11-27T08:00:55;9.27;54.44
74416;SHT31;62850;42.428;25.618;2022-11-27T08:03:21;9.32;53.67
74416;SHT31;62850;42.428;25.618;2022-11-27T08:05:47;9.42;52.75
74416;SHT31;62850;42.428;25.618;2022-11-27T08:08:12;9.37;52.06
74416;SHT31;62850;42.428;25.618;2022-11-27T08:10:41;9.42;53.14
74416;SHT31;62850;42.428;25.618;2022-11-27T08:13:07;9.40;51.30
74416;SHT31;62850;42.428;25.618;2022-11-27T08:15:33;9.42;50.59
74416;SHT31;62850;42.428;25.618;2022-11-27T08:17:58;9.38;50.47
74416;SHT31;62850;42.428;25.618;2022-11-27T08:20:24;9.41;49.84
74416;SHT31;62850;42.428;25.618;2022-11-27T08:22:50;9.38;50.17
74416;SHT31;62850;42.428;25.618;2022-11-27T08:25:15;9.40;50.35
74416;SHT31;62850;42.428;25.618;2022-11-27T08:27:42;9.49;50.71
74416;SHT31;62850;42.428;25.618;2022-11-27T08:30:08;9.59;50.38
74416;SHT31;62850;42.428;25.618;2022-11-27T08:32:37;9.62;49.77
74416;SHT31;62850;42.428;25.618;2022-11-27T08:35:03;9.55;48.34
74416;SHT31;62850;42.428;25.618;2022-11-27T08:37:29;9.55;47.44
74416;SHT31;62850;42.428;25.618;2022-11-27T08:39:54;9.74;48.34
74416;SHT31;62850;42.428;25.618;2022-11-27T08:42:20;9.88;48.39
74416;SHT31;62850;42.428;25.618;2022-11-27T08:44:45;9.95;46.59
74416;SHT31;62850;42.428;25.618;2022-11-27T08:47:11;10.10;46.89
74416;SHT31;62850;42.428;25.618;2022-11-27T08:49:36;10.21;46.63
74416;SHT31;62850;42.428;25.618;2022-11-27T08:52:02;10.21;46.08
74416;SHT31;62850;42.428;25.618;2022-11-27T08:54:27;10.19;48.86
74416;SHT31;62850;42.428;25.618;2022-11-27T08:56:53;10.17;45.59
74416;SHT31;62850;42.428;25.618;2022-11-27T08:59:18;10.20;44.68
74416;SHT31;62850;42.428;25.618;2022-11-27T09:01:44;10.26;43.49
74416;SHT31;62850;42.428;25.618;2022-11-27T09:04:09;10.13;44.02
74416;SHT31;62850;42.428;25.618;2022-11-27T09:06:35;10.24;42.73
74416;SHT31;62850;42.428;25.618;2022-11-27T09:09:03;10.27;42.60
74416;SHT31;62850;42.428;25.618;2022-11-27T09:11:30;10.23;40.37
74416;SHT31;62850;42.428;25.618;2022-11-27T09:13:58;10.14;40.06
74416;SHT31;62850;42.428;25.618;2022-11-27T09:16:24;10.19;41.90
74416;SHT31;62850;42.428;25.618;2022-11-27T09:18:50;10.30;40.58
74416;SHT31;62850;42.428;25.618;2022-11-27T09:21:17;10.38;39.46
74416;SHT31;62850;42.428;25.618;2022-11-27T09:23:43;10.32;40.28
74416;SHT31;62850;42.428;25.618;2022-11-27T09:26:12;10.43;42.20
74416;SHT31;62850;42.428;25.618;2022-11-27T09:28:38;10.47;40.74
74416;SHT31;62850;42.428;25.618;2022-11-27T09:31:06;10.61;40.10
74416;SHT31;62850;42.428;25.618;2022-11-27T09:33:34;10.77;40.99
74416;SHT31;62850;42.428;25.618;2022-11-27T09:36:11;11.01;41.35
74416;SHT31;62850;42.428;25.618;2022-11-27T09:38:38;11.18;39.86
74416;SHT31;62850;42.428;25.618;2022-11-27T09:44:01;11.43;39.79
74416;SHT31;62850;42.428;25.618;2022-11-27T09:46:30;11.52;40.37
74416;SHT31;62850;42.428;25.618;2022-11-27T09:48:59;11.50;38.74
74416;SHT31;62850;42.428;25.618;2022-11-27T09:51:49;11.44;38.09
74416;SHT31;62850;42.428;25.618;2022-11-27T09:56:56;11.57;39.09
74416;SHT31;62850;42.428;25.618;2022-11-27T09:59:29;11.60;38.39
74416;SHT31;62850;42.428;25.618;2022-11-27T10:01:58;11.63;45.74
74416;SHT31;62850;42.428;25.618;2022-11-27T10:04:24;11.67;39.27
74416;SHT31;62850;42.428;25.618;2022-11-27T10:07:15;11.67;39.51
74416;SHT31;62850;42.428;25.618;2022-11-27T10:12:21;11.67;39.64
74416;SHT31;62850;42.428;25.618;2022-11-27T10:17:29;11.74;40.42
74416;SHT31;62850;42.428;25.618;2022-11-27T10:20:17;11.77;40.34
74416;SHT31;62850;42.428;25.618;2022-11-27T10:25:32;11.86;40.91
74416;SHT31;62850;42.428;25.618;2022-11-27T10:28:08;11.78;41.74
74416;SHT31;62850;42.428;25.618;2022-11-27T10:30:48;11.84;40.64
74416;SHT31;62850;42.428;25.618;2022-11-27T10:33:21;11.88;40.38
74416;SHT31;62850;42.428;25.618;2022-11-27T10:35:48;11.90;40.24
74416;SHT31;62850;42.428;25.618;2022-11-27T10:38:18;11.91;40.26
74416;SHT31;62850;42.428;25.618;2022-11-27T10:43:32;12.07;40.09
74416;SHT31;62850;42.428;25.618;2022-11-27T10:46:25;12.13;41.32
74416;SHT31;62850;42.428;25.618;2022-11-27T10:48:52;12.17;40.06
74416;SHT31;62850;42.428;25.618;2022-11-27T10:51:20;12.22;40.14
74416;SHT31;62850;42.428;25.618;2022-11-27T10:53:51;12.11;39.11
74416;SHT31;62850;42.428;25.618;2022-11-27T10:59:32;12.17;40.71
74416;SHT31;62850;42.428;25.618;2022-11-27T11:02:00;12.24;40.82
74416;SHT31;62850;42.428;25.618;2022-11-27T11:04:30;12.21;40.36
74416;SHT31;62850;42.428;25.618;2022-11-27T11:06:56;12.18;40.56
74416;SHT31;62850;42.428;25.618;2022-11-27T11:09:23;12.20;41.13
74416;SHT31;62850;42.428;25.618;2022-11-27T11:11:49;12.20;41.63
74416;SHT31;62850;42.428;25.618;2022-11-27T11:14:23;12.25;41.03
74416;SHT31;62850;42.428;25.618;2022-11-27T11:16:51;12.17;40.96
74416;SHT31;62850;42.428;25.618;2022-11-27T11:19:33;12.13;41.68
74416;SHT31;62850;42.428;25.618;2022-11-27T11:22:15;12.13;41.26
74416;SHT31;62850;42.428;25.618;2022-11-27T11:24:46;12.21;41.38
74416;SHT31;62850;42.428;25.618;2022-11-27T11:27:24;12.08;41.92
74416;SHT31;62850;42.428;25.618;2022-11-27T11:29:55;12.11;41.98
74416;SHT31;62850;42.428;25.618;2022-11-27T11:32:26;12.07;41.81
74416;SHT31;62850;42.428;25.618;2022-11-27T11:34:58;11.98;42.38
74416;SHT31;62850;42.428;25.618;2022-11-27T11:42:30;12.01;42.39
74416;SHT31;62850;42.428;25.618;2022-11-27T11:47:28;11.99;43.20
74416;SHT31;62850;42.428;25.618;2022-11-27T11:49:54;11.98;42.83
74416;SHT31;62850;42.428;25.618;2022-11-27T11:52:36;11.95;43.91
74416;SHT31;62850;42.428;25.618;2022-11-27T11:55:17;11.90;43.54
74416;SHT31;62850;42.428;25.618;2022-11-27T12:00:47;11.86;44.00
74416;SHT31;62850;42.428;25.618;2022-11-27T12:03:43;11.78;44.15
74416;SHT31;62850;42.428;25.618;2022-11-27T12:09:13;11.78;44.34
74416;SHT31;62850;42.428;25.618;2022-11-27T12:14:42;11.77;44.93
74416;SHT31;62850;42.428;25.618;2022-11-27T12:28:22;11.47;45.37
74416;SHT31;62850;42.428;25.618;2022-11-27T12:44:34;10.61;43.71
74416;SHT31;62850;42.428;25.618;2022-11-27T12:47:08;10.68;43.51
74416;SHT31;62850;42.428;25.618;2022-11-27T12:49:46;10.71;43.76
74416;SHT31;62850;42.428;25.618;2022-11-27T12:52:18;10.77;43.81
74416;SHT31;62850;42.428;25.618;2022-11-27T12:57:29;10.89;45.27
74416;SHT31;62850;42.428;25.618;2022-11-27T12:59:59;10.89;45.91
74416;SHT31;62850;42.428;25.618;2022-11-27T13:02:41;10.84;46.06
74416;SHT31;62850;42.428;25.618;2022-11-27T13:07:59;10.82;48.07
74416;SHT31;62850;42.428;25.618;2022-11-27T13:10:34;10.77;47.77
74416;SHT31;62850;42.428;25.618;2022-11-27T13:13:03;10.78;47.64
74416;SHT31;62850;42.428;25.618;2022-11-27T13:18:20;10.71;47.66
74416;SHT31;62850;42.428;25.618;2022-11-27T13:20:47;10.69;47.33
74416;SHT31;62850;42.428;25.618;2022-11-27T13:23:14;10.68;47.07
74416;SHT31;62850;42.428;25.618;2022-11-27T13:25:49;10.64;47.59
74416;SHT31;62850;42.428;25.618;2022-11-27T13:28:49;10.68;47.82
74416;SHT31;62850;42.428;25.618;2022-11-27T13:31:24;10.68;48.30
74416;SHT31;62850;42.428;25.618;2022-11-27T13:33:57;10.61;47.46
74416;SHT31;62850;42.428;25.618;2022-11-27T13:36:26;10.46;45.69
74416;SHT31;62850;42.428;25.618;2022-11-27T13:38:58;10.40;44.97
74416;SHT31;62850;42.428;25.618;2022-11-27T13:41:33;10.27;45.01
74416;SHT31;62850;42.428;25.618;2022-11-27T13:44:00;10.21;44.94
74416;SHT31;62850;42.428;25.618;2022-11-27T13:46:28;9.86;45.52
74416;SHT31;62850;42.428;25.618;2022-11-27T13:51:38;10.00;45.72
74416;SHT31;62850;42.428;25.618;2022-11-27T13:54:13;9.88;45.57
74416;SHT31;62850;42.428;25.618;2022-11-27T13:56:40;9.81;46.70
74416;SHT31;62850;42.428;25.618;2022-11-27T14:01:57;9.98;46.01
74416;SHT31;62850;42.428;25.618;2022-11-27T14:04:26;10.02;46.11
74416;SHT31;62850;42.428;25.618;2022-11-27T14:06:58;9.98;46.67
74416;SHT31;62850;42.428;25.618;2022-11-27T14:09:37;10.03;46.87
74416;SHT31;62850;42.428;25.618;2022-11-27T14:12:27;9.82;46.54
74416;SHT31;62850;42.428;25.618;2022-11-27T14:15:04;9.77;47.00
74416;SHT31;62850;42.428;25.618;2022-11-27T14:17:39;9.77;47.33
74416;SHT31;62850;42.428;25.618;2022-11-27T14:20:29;9.41;47.43
74416;SHT31;62850;42.428;25.618;2022-11-27T14:22:57;9.14;48.31
74416;SHT31;62850;42.428;25.618;2022-11-27T14:25:25;9.10;48.52
74416;SHT31;62850;42.428;25.618;2022-11-27T14:30:47;9.06;48.80
74416;SHT31;62850;42.428;25.618;2022-11-27T14:33:32;9.11;48.99
74416;SHT31;62850;42.428;25.618;2022-11-27T14:36:00;9.14;48.74
74416;SHT31;62850;42.428;25.618;2022-11-27T14:38:28;9.20;48.70
74416;SHT31;62850;42.428;25.618;2022-11-27T14:41:06;8.94;49.11
74416;SHT31;62850;42.428;25.618;2022-11-27T14:43:33;8.97;49.58
74416;SHT31;62850;42.428;25.618;2022-11-27T14:46:00;9.01;49.32
74416;SHT31;62850;42.428;25.618;2022-11-27T14:48:32;9.03;49.64
74416;SHT31;62850;42.428;25.618;2022-11-27T14:51:09;9.11;49.25
74416;SHT31;62850;42.428;25.618;2022-11-27T14:53:38;8.99;49.54
74416;SHT31;62850;42.428;25.618;2022-11-27T14:56:03;8.99;49.63
74416;SHT31;62850;42.428;25.618;2022-11-27T14:58:29;8.91;49.84
74416;SHT31;62850;42.428;25.618;2022-11-27T15:01:04;8.86;50.03
74416;SHT31;62850;42.428;25.618;2022-11-27T15:03:33;8.89;49.97
74416;SHT31;62850;42.428;25.618;2022-11-27T15:06:00;8.97;49.95
74416;SHT31;62850;42.428;25.618;2022-11-27T15:08:29;9.01;49.88
74416;SHT31;62850;42.428;25.618;2022-11-27T15:10:57;9.16;50.04
74416;SHT31;62850;42.428;25.618;2022-11-27T15:13:25;8.91;49.93
74416;SHT31;62850;42.428;25.618;2022-11-27T15:18:23;8.86;50.19
74416;SHT31;62850;42.428;25.618;2022-11-27T15:20:49;8.87;50.03
74416;SHT31;62850;42.428;25.618;2022-11-27T15:23:25;8.93;50.36
74416;SHT31;62850;42.428;25.618;2022-11-27T15:28:59;8.90;50.34
74416;SHT31;62850;42.428;25.618;2022-11-27T15:31:31;8.87;50.10
74416;SHT31;62850;42.428;25.618;2022-11-27T15:36:49;8.93;50.12
74416;SHT31;62850;42.428;25.618;2022-11-27T15:39:21;8.94;50.27
74416;SHT31;62850;42.428;25.618;2022-11-27T15:41:56;8.91;50.75
74416;SHT31;62850;42.428;25.618;2022-11-27T15:44:26;9.01;50.11
74416;SHT31;62850;42.428;25.618;2022-11-27T15:46:54;8.83;50.34
74416;SHT31;62850;42.428;25.618;2022-11-27T15:49:21;8.75;50.51
74416;SHT31;62850;42.428;25.618;2022-11-27T15:51:48;8.75;50.38
74416;SHT31;62850;42.428;25.618;2022-11-27T15:54:14;8.70;50.40
74416;SHT31;62850;42.428;25.618;2022-11-27T15:56:41;8.83;50.61
74416;SHT31;62850;42.428;25.618;2022-11-27T15:59:09;8.99;50.14
74416;SHT31;62850;42.428;25.618;2022-11-27T16:01:36;8.94;50.74
74416;SHT31;62850;42.428;25.618;2022-11-27T16:04:03;8.96;50.21
74416;SHT31;62850;42.428;25.618;2022-11-27T16:06:29;8.96;50.53
74416;SHT31;62850;42.428;25.618;2022-11-27T16:08:59;8.77;50.55
74416;SHT31;62850;42.428;25.618;2022-11-27T16:11:27;8.86;50.58
74416;SHT31;62850;42.428;25.618;2022-11-27T16:13:54;8.83;51.02
74416;SHT31;62850;42.428;25.618;2022-11-27T16:16:21;8.84;50.59
74416;SHT31;62850;42.428;25.618;2022-11-27T16:18:50;8.79;51.12
74416;SHT31;62850;42.428;25.618;2022-11-27T16:21:16;8.76;51.05
74416;SHT31;62850;42.428;25.618;2022-11-27T16:23:43;8.76;51.34
74416;SHT31;62850;42.428;25.618;2022-11-27T16:26:11;8.79;52.59
74416;SHT31;62850;42.428;25.618;2022-11-27T16:28:38;8.80;51.15
74416;SHT31;62850;42.428;25.618;2022-11-27T16:31:08;8.83;51.16
74416;SHT31;62850;42.428;25.618;2022-11-27T16:33:35;8.89;51.37
74416;SHT31;62850;42.428;25.618;2022-11-27T16:36:12;8.94;51.02
74416;SHT31;62850;42.428;25.618;2022-11-27T16:38:39;8.73;51.11
74416;SHT31;62850;42.428;25.618;2022-11-27T16:41:11;8.66;51.55
74416;SHT31;62850;42.428;25.618;2022-11-27T16:43:40;8.63;51.71
74416;SHT31;62850;42.428;25.618;2022-11-27T16:46:12;8.60;51.67
74416;SHT31;62850;42.428;25.618;2022-11-27T16:48:51;8.45;51.67
74416;SHT31;62850;42.428;25.618;2022-11-27T16:51:30;8.37;52.10
74416;SHT31;62850;42.428;25.618;2022-11-27T16:54:00;8.37;52.68
74416;SHT31;62850;42.428;25.618;2022-11-27T16:56:28;8.30;52.25
74416;SHT31;62850;42.428;25.618;2022-11-27T16:58:56;8.28;52.79
74416;SHT31;62850;42.428;25.618;2022-11-27T17:01:28;8.28;52.20
74416;SHT31;62850;42.428;25.618;2022-11-27T17:03:55;8.35;52.40
74416;SHT31;62850;42.428;25.618;2022-11-27T17:06:26;8.45;52.22
74416;SHT31;62850;42.428;25.618;2022-11-27T17:08:54;8.37;52.04
74416;SHT31;62850;42.428;25.618;2022-11-27T17:11:25;8.28;52.09
74416;SHT31;62850;42.428;25.618;2022-11-27T17:13:55;8.35;52.36
74416;SHT31;62850;42.428;25.618;2022-11-27T17:16:22;8.41;52.17
74416;SHT31;62850;42.428;25.618;2022-11-27T17:18:48;8.28;52.29